createdAt,value
2022-12-19T00:03:24.083Z,20.83
2022-12-19T00:08:27.722Z,26.00
2022-12-19T00:13:36.884Z,26.93
2022-12-19T00:18:46.336Z,26.83
2022-12-19T00:23:50.342Z,25.87
2022-12-19T00:28:58.549Z,22.87
2022-12-19T05:33:01.626Z,13.50
2022-12-19T05:38:05.532Z,13.57
2022-12-19T05:43:08.973Z,12.63
2022-12-19T05:48:12.391Z,13.27
2022-12-19T05:53:16.398Z,13.30
2022-12-19T05:58:19.993Z,11.67
2022-12-19T06:03:23.556Z,13.00
2022-12-19T06:08:26.987Z,11.80
2022-12-19T06:13:30.839Z,11.90
2022-12-19T06:18:34.918Z,12.70
2022-12-19T06:23:39.146Z,13.97
2022-12-19T06:28:42.652Z,14.63
2022-12-19T06:33:46.282Z,14.83
2022-12-19T06:38:50.885Z,14.73
2022-12-19T06:43:57.190Z,14.57
2022-12-19T06:49:00.701Z,15.57
2022-12-19T06:54:04.614Z,13.47
2022-12-19T06:59:08.594Z,12.53
2022-12-19T07:04:15.463Z,14.30
2022-12-19T07:09:18.888Z,16.17
2022-12-19T07:14:22.400Z,18.70
2022-12-19T07:19:26.461Z,17.53
2022-12-19T07:24:30.333Z,15.20
2022-12-19T07:29:33.651Z,18.20
2022-12-19T07:34:37.053Z,21.13
2022-12-19T07:39:40.599Z,23.93
2022-12-19T07:44:44.086Z,24.80
2022-12-19T07:49:47.504Z,23.13
2022-12-19T07:54:50.970Z,20.07
2022-12-19T07:59:54.332Z,22.33
2022-12-19T08:04:58.086Z,20.07
2022-12-19T08:10:01.536Z,21.73
2022-12-19T08:15:06.072Z,22.37
2022-12-19T08:20:11.983Z,20.47
2022-12-19T08:25:15.400Z,25.70
2022-12-19T08:30:19.247Z,26.03
2022-12-19T08:35:23.169Z,24.43
2022-12-19T08:40:26.907Z,24.63
2022-12-19T08:45:30.628Z,21.87
2022-12-19T08:50:34.146Z,21.23
2022-12-19T08:55:37.590Z,20.43
2022-12-19T09:00:41.133Z,19.10
2022-12-19T09:06:03.515Z,19.40
2022-12-19T09:11:12.249Z,18.87
2022-12-19T09:16:23.812Z,20.03
2022-12-19T09:21:29.432Z,19.53
2022-12-19T09:26:33.088Z,18.00
2022-12-19T09:31:37.340Z,21.57
2022-12-19T09:36:40.796Z,22.60
2022-12-19T09:41:46.849Z,19.93
2022-12-19T09:46:57.118Z,19.20
2022-12-19T09:52:08.498Z,17.77
2022-12-19T09:57:22.477Z,17.80
2022-12-19T10:02:29.201Z,15.30
2022-12-19T10:08:01.434Z,19.20
2022-12-19T10:13:12.872Z,18.77
2022-12-19T10:18:40.991Z,22.10
2022-12-19T10:24:23.433Z,18.97
2022-12-19T10:29:58.959Z,17.87
2022-12-19T10:35:02.772Z,20.70
2022-12-19T10:40:20.018Z,18.77
2022-12-19T10:45:40.634Z,19.70
2022-12-19T10:50:45.143Z,20.70
2022-12-19T10:55:51.313Z,20.07
2022-12-19T11:01:09.926Z,20.27
2022-12-19T11:06:35.060Z,22.10
2022-12-19T11:15:25.424Z,18.63
2022-12-19T11:24:19.100Z,18.83
2022-12-19T11:29:26.395Z,18.57
2022-12-19T11:30:49.021Z,19.47
2022-12-19T11:33:19.246Z,20.17
2022-12-19T11:38:29.919Z,20.83
2022-12-19T11:43:53.543Z,21.33
2022-12-19T11:49:19.303Z,19.83
2022-12-19T11:54:26.866Z,19.50
2022-12-19T11:59:38.023Z,19.10
2022-12-19T12:05:12.069Z,17.23
2022-12-19T12:14:43.121Z,15.93
2022-12-19T12:26:30.987Z,16.57
2022-12-19T12:31:50.626Z,16.70
2022-12-19T12:31:51.539Z,14.13
2022-12-19T12:35:12.787Z,14.00
2022-12-19T12:38:28.209Z,15.03
2022-12-19T12:43:50.494Z,16.47
2022-12-19T12:48:58.347Z,17.70
2022-12-19T12:54:08.012Z,18.07
2022-12-19T12:59:27.959Z,18.93
2022-12-19T13:04:36.308Z,17.23
2022-12-19T13:09:39.980Z,19.17
2022-12-19T13:14:46.395Z,18.67
2022-12-19T13:20:18.735Z,19.07
2022-12-19T13:25:47.412Z,21.30
2022-12-19T13:31:20.255Z,22.17
2022-12-19T13:39:49.008Z,22.70
2022-12-19T13:42:43.268Z,22.53
2022-12-19T13:47:47.611Z,21.77
2022-12-19T13:52:52.621Z,20.47
2022-12-19T13:57:57.454Z,20.93
2022-12-19T14:03:01.904Z,22.90
2022-12-19T14:08:07.228Z,24.33
2022-12-19T14:14:00.398Z,24.07
2022-12-19T14:19:00.817Z,27.33
2022-12-19T14:24:12.694Z,26.67
2022-12-19T14:30:28.244Z,27.53
2022-12-19T14:36:09.005Z,26.77
2022-12-19T14:40:31.879Z,23.60
2022-12-19T14:53:08.396Z,23.43
2022-12-19T14:54:15.601Z,25.23
2022-12-19T14:57:00.728Z,25.87
2022-12-19T15:02:08.006Z,22.17
2022-12-19T15:07:15.975Z,23.43
2022-12-19T15:14:47.900Z,24.87
2022-12-19T15:18:38.927Z,28.40
2022-12-19T15:23:45.432Z,30.63
2022-12-19T15:28:50.342Z,36.23
2022-12-19T15:34:32.267Z,32.03
2022-12-19T15:39:18.210Z,26.97
2022-12-19T15:44:29.724Z,27.87
2022-12-19T15:49:35.517Z,30.00
2022-12-19T15:54:50.695Z,28.20
2022-12-19T15:59:54.792Z,26.17
2022-12-19T16:05:03.758Z,27.23
2022-12-19T16:10:11.182Z,25.93
2022-12-19T16:15:27.134Z,24.00
2022-12-19T16:20:34.431Z,22.40
2022-12-19T16:25:42.433Z,22.47
2022-12-19T16:30:46.138Z,24.53
2022-12-19T16:36:07.046Z,24.23
2022-12-19T16:41:23.991Z,23.03
2022-12-19T16:46:34.421Z,24.73
2022-12-19T16:51:39.597Z,27.37
2022-12-19T16:56:48.610Z,24.60
2022-12-19T17:01:52.309Z,23.87
2022-12-19T17:06:56.082Z,21.37
2022-12-19T17:12:01.149Z,21.00
2022-12-19T17:17:05.516Z,22.53
2022-12-19T17:22:19.421Z,20.97
2022-12-19T17:27:23.516Z,18.00
2022-12-19T17:32:26.964Z,19.53
2022-12-19T17:37:30.605Z,18.07
2022-12-19T17:42:37.488Z,16.40
2022-12-19T17:47:41.160Z,14.43
2022-12-19T17:52:44.655Z,16.43
2022-12-19T17:57:48.649Z,16.57
2022-12-19T18:02:55.229Z,16.27
2022-12-19T18:07:58.893Z,14.63
2022-12-19T18:13:02.267Z,12.83
2022-12-19T18:18:06.011Z,16.03
2022-12-19T18:23:21.269Z,14.93
2022-12-19T18:28:24.764Z,14.50
2022-12-19T18:33:28.383Z,14.70
2022-12-19T18:38:32.023Z,13.57
2022-12-19T18:43:35.432Z,13.27
2022-12-19T18:48:38.987Z,15.63
2022-12-19T18:53:42.378Z,14.93
2022-12-19T18:58:45.814Z,14.60
2022-12-19T19:03:55.540Z,12.80
2022-12-19T19:09:02.122Z,12.63
2022-12-19T19:14:05.532Z,12.40
2022-12-19T19:19:11.526Z,12.17
2022-12-19T19:24:17.317Z,13.77
2022-12-19T19:29:20.815Z,13.10
2022-12-19T19:34:28.274Z,12.83
2022-12-19T19:39:33.630Z,10.83
2022-12-19T19:44:37.459Z,11.00
2022-12-19T19:49:41.130Z,14.37
2022-12-19T19:54:44.525Z,12.53
2022-12-19T19:59:48.196Z,14.13
2022-12-19T20:04:52.118Z,10.80
2022-12-19T20:09:55.674Z,12.43
2022-12-19T20:14:59.168Z,12.40
2022-12-19T20:20:02.632Z,11.67
2022-12-19T20:25:06.289Z,11.63
2022-12-19T20:30:10.289Z,10.90
2022-12-19T20:35:15.090Z,10.90
2022-12-19T20:40:18.811Z,10.07
2022-12-19T20:45:22.793Z,11.47
2022-12-19T20:50:26.334Z,9.80
2022-12-19T20:55:30.015Z,10.53
2022-12-19T21:00:43.707Z,10.07
2022-12-19T21:05:53.865Z,9.50
2022-12-19T21:10:57.691Z,10.13
2022-12-19T21:16:03.210Z,10.27
2022-12-19T21:21:08.252Z,11.57
2022-12-19T21:26:12.269Z,10.03
2022-12-19T21:31:28.033Z,10.13
2022-12-19T21:36:32.215Z,9.30
2022-12-19T21:41:35.936Z,9.80
2022-12-19T21:46:39.852Z,9.27
2022-12-19T21:51:43.261Z,10.03
2022-12-19T21:56:46.580Z,9.63
2022-12-19T22:01:50.478Z,10.93
2022-12-19T22:06:53.857Z,9.00
2022-12-19T22:11:57.270Z,9.33
2022-12-19T22:17:01.022Z,10.13
2022-12-19T22:22:04.983Z,11.77
2022-12-19T22:27:08.438Z,11.53
2022-12-19T22:32:11.846Z,9.70
2022-12-19T22:37:15.576Z,10.27
2022-12-19T22:42:18.965Z,10.60
2022-12-19T22:47:22.443Z,10.93
2022-12-19T22:52:25.975Z,9.80
2022-12-19T22:57:29.252Z,10.53
2022-12-19T23:02:32.724Z,9.60
2022-12-19T23:07:36.484Z,10.73
2022-12-19T23:12:39.891Z,10.47
2022-12-19T23:17:43.317Z,11.83
2022-12-19T23:22:46.580Z,9.33
2022-12-19T23:27:49.962Z,10.63
2022-12-19T23:32:53.348Z,9.73
2022-12-19T23:37:56.634Z,9.37
2022-12-19T23:42:59.969Z,11.90
2022-12-19T23:48:03.654Z,10.53
2022-12-19T23:53:07.021Z,10.30
2022-12-19T23:58:15.574Z,10.00
